sensor_id;sensor_type;location;lat;lon;timestamp;temperature;humidity
56771;DHT22;42641;59.794;17.616;2023-04-03T00:00:34;-2.60;99.90
56771;DHT22;42641;59.794;17.616;2023-04-03T00:03:01;-2.60;99.90
56771;DHT22;42641;59.794;17.616;2023-04-03T00:05:27;-2.60;99.90
56771;DHT22;42641;59.794;17.616;2023-04-03T00:07:54;-2.70;99.90
56771;DHT22;42641;59.794;17.616;2023-04-03T00:10:21;-2.70;99.90
56771;DHT22;42641;59.794;17.616;2023-04-03T00:12:48;-2.70;99.90
56771;DHT22;42641;59.794;17.616;2023-04-03T00:15:14;-2.70;99.90
56771;DHT22;42641;59.794;17.616;2023-04-03T00:17:41;-2.70;99.90
56771;DHT22;42641;59.794;17.616;2023-04-03T00:20:08;-2.70;99.90
56771;DHT22;42641;59.794;17.616;2023-04-03T00:22:35;-2.80;99.90
56771;DHT22;42641;59.794;17.616;2023-04-03T00:25:01;-2.80;99.90
56771;DHT22;42641;59.794;17.616;2023-04-03T00:27:28;-2.90;99.90
56771;DHT22;42641;59.794;17.616;2023-04-03T00:29:54;-2.90;99.90
56771;DHT22;42641;59.794;17.616;2023-04-03T00:32:20;-2.90;99.90
56771;DHT22;42641;59.794;17.616;2023-04-03T00:34:47;-2.90;99.90
56771;DHT22;42641;59.794;17.616;2023-04-03T00:37:13;-2.90;99.90
56771;DHT22;42641;59.794;17.616;2023-04-03T00:39:39;-2.90;99.90
56771;DHT22;42641;59.794;17.616;2023-04-03T00:42:06;-2.90;99.90
56771;DHT22;42641;59.794;17.616;2023-04-03T00:47:00;-3.00;99.90
56771;DHT22;42641;59.794;17.616;2023-04-03T00:49:28;-3.00;99.90
56771;DHT22;42641;59.794;17.616;2023-04-03T00:51:55;-3.00;99.90
56771;DHT22;42641;59.794;17.616;2023-04-03T00:54:22;-3.00;99.90
56771;DHT22;42641;59.794;17.616;2023-04-03T00:56:51;-3.00;99.90
56771;DHT22;42641;59.794;17.616;2023-04-03T00:59:22;-3.00;99.90
56771;DHT22;42641;59.794;17.616;2023-04-03T01:01:52;-3.00;99.90
56771;DHT22;42641;59.794;17.616;2023-04-03T01:07:24;-3.10;99.90
56771;DHT22;42641;59.794;17.616;2023-04-03T01:09:56;-3.10;99.90
56771;DHT22;42641;59.794;17.616;2023-04-03T01:12:32;-3.20;99.90
56771;DHT22;42641;59.794;17.616;2023-04-03T01:15:05;-3.20;99.90
56771;DHT22;42641;59.794;17.616;2023-04-03T01:17:36;-3.30;99.90
56771;DHT22;42641;59.794;17.616;2023-04-03T01:22:52;-3.40;99.90
56771;DHT22;42641;59.794;17.616;2023-04-03T01:25:22;-3.40;99.90
56771;DHT22;42641;59.794;17.616;2023-04-03T01:27:56;-3.50;99.90
56771;DHT22;42641;59.794;17.616;2023-04-03T01:30:31;-3.50;99.90
56771;DHT22;42641;59.794;17.616;2023-04-03T01:32:59;-3.60;99.90
56771;DHT22;42641;59.794;17.616;2023-04-03T01:35:25;-3.60;99.90
56771;DHT22;42641;59.794;17.616;2023-04-03T01:37:52;-3.60;99.90
56771;DHT22;42641;59.794;17.616;2023-04-03T01:40:18;-3.60;99.90
56771;DHT22;42641;59.794;17.616;2023-04-03T01:42:46;-3.60;99.90
56771;DHT22;42641;59.794;17.616;2023-04-03T01:45:13;-3.60;99.90
56771;DHT22;42641;59.794;17.616;2023-04-03T01:47:39;-3.60;99.90
56771;DHT22;42641;59.794;17.616;2023-04-03T01:50:06;-3.50;99.90
56771;DHT22;42641;59.794;17.616;2023-04-03T01:52:34;-3.50;99.90
56771;DHT22;42641;59.794;17.616;2023-04-03T01:55:01;-3.60;99.90
56771;DHT22;42641;59.794;17.616;2023-04-03T01:57:28;-3.60;99.90
56771;DHT22;42641;59.794;17.616;2023-04-03T01:59:54;-3.70;99.90
56771;DHT22;42641;59.794;17.616;2023-04-03T02:02:20;-3.70;99.90
56771;DHT22;42641;59.794;17.616;2023-04-03T02:04:47;-3.70;99.90
56771;DHT22;42641;59.794;17.616;2023-04-03T02:07:13;-3.70;99.90
56771;DHT22;42641;59.794;17.616;2023-04-03T02:09:39;-3.70;99.90
56771;DHT22;42641;59.794;17.616;2023-04-03T02:12:06;-3.80;99.90
56771;DHT22;42641;59.794;17.616;2023-04-03T02:14:33;-3.70;99.90
56771;DHT22;42641;59.794;17.616;2023-04-03T02:17:01;-3.80;99.90
56771;DHT22;42641;59.794;17.616;2023-04-03T02:19:31;-3.80;99.90
56771;DHT22;42641;59.794;17.616;2023-04-03T02:21:57;-3.80;99.90
56771;DHT22;42641;59.794;17.616;2023-04-03T02:24:24;-3.80;99.90
56771;DHT22;42641;59.794;17.616;2023-04-03T02:26:51;-3.70;99.90
56771;DHT22;42641;59.794;17.616;2023-04-03T02:29:18;-3.70;99.90
56771;DHT22;42641;59.794;17.616;2023-04-03T02:31:44;-3.70;99.90
56771;DHT22;42641;59.794;17.616;2023-04-03T02:34:11;-3.80;99.90
56771;DHT22;42641;59.794;17.616;2023-04-03T02:36:38;-3.80;99.90
56771;DHT22;42641;59.794;17.616;2023-04-03T02:39:08;-3.80;99.90
56771;DHT22;42641;59.794;17.616;2023-04-03T02:41:35;-3.80;99.90
56771;DHT22;42641;59.794;17.616;2023-04-03T02:44:05;-3.80;99.90
56771;DHT22;42641;59.794;17.616;2023-04-03T02:46:32;-3.80;99.90
56771;DHT22;42641;59.794;17.616;2023-04-03T02:48:59;-3.80;99.90
56771;DHT22;42641;59.794;17.616;2023-04-03T02:51:26;-3.80;99.90
56771;DHT22;42641;59.794;17.616;2023-04-03T02:53:53;-3.80;99.90
56771;DHT22;42641;59.794;17.616;2023-04-03T02:56:23;-3.80;99.90
56771;DHT22;42641;59.794;17.616;2023-04-03T02:58:50;-3.80;99.90
56771;DHT22;42641;59.794;17.616;2023-04-03T03:01:18;-3.80;99.90
56771;DHT22;42641;59.794;17.616;2023-04-03T03:03:44;-3.80;99.90
56771;DHT22;42641;59.794;17.616;2023-04-03T03:06:13;-3.80;99.90
56771;DHT22;42641;59.794;17.616;2023-04-03T03:08:41;-3.80;99.90
56771;DHT22;42641;59.794;17.616;2023-04-03T03:11:08;-3.90;99.90
56771;DHT22;42641;59.794;17.616;2023-04-03T03:13:35;-3.80;99.90
56771;DHT22;42641;59.794;17.616;2023-04-03T03:16:02;-3.80;99.90
56771;DHT22;42641;59.794;17.616;2023-04-03T03:18:29;-3.90;99.90
56771;DHT22;42641;59.794;17.616;2023-04-03T03:20:58;-3.80;99.90
56771;DHT22;42641;59.794;17.616;2023-04-03T03:23:26;-3.90;99.90
56771;DHT22;42641;59.794;17.616;2023-04-03T03:26:00;-3.80;99.90
56771;DHT22;42641;59.794;17.616;2023-04-03T03:28:27;-3.90;99.90
56771;DHT22;42641;59.794;17.616;2023-04-03T03:30:54;-3.90;99.90
56771;DHT22;42641;59.794;17.616;2023-04-03T03:33:21;-3.80;99.90
56771;DHT22;42641;59.794;17.616;2023-04-03T03:35:47;-3.80;99.90
56771;DHT22;42641;59.794;17.616;2023-04-03T03:38:14;-3.90;99.90
56771;DHT22;42641;59.794;17.616;2023-04-03T03:40:41;-3.90;99.90
56771;DHT22;42641;59.794;17.616;2023-04-03T03:43:07;-3.90;99.90
56771;DHT22;42641;59.794;17.616;2023-04-03T03:45:34;-3.90;99.90
56771;DHT22;42641;59.794;17.616;2023-04-03T03:48:02;-3.90;99.90
56771;DHT22;42641;59.794;17.616;2023-04-03T03:50:28;-3.90;99.90
56771;DHT22;42641;59.794;17.616;2023-04-03T03:52:55;-3.90;99.90
56771;DHT22;42641;59.794;17.616;2023-04-03T03:55:22;-3.90;99.90
56771;DHT22;42641;59.794;17.616;2023-04-03T03:57:53;-3.90;99.90
56771;DHT22;42641;59.794;17.616;2023-04-03T04:00:20;-3.90;99.90
56771;DHT22;42641;59.794;17.616;2023-04-03T04:02:52;-4.00;99.90
56771;DHT22;42641;59.794;17.616;2023-04-03T04:05:22;-4.00;99.90
56771;DHT22;42641;59.794;17.616;2023-04-03T04:07:48;-4.10;99.90
56771;DHT22;42641;59.794;17.616;2023-04-03T04:10:15;-4.10;99.90
56771;DHT22;42641;59.794;17.616;2023-04-03T04:12:43;-4.10;99.90
56771;DHT22;42641;59.794;17.616;2023-04-03T04:15:10;-4.10;99.90
56771;DHT22;42641;59.794;17.616;2023-04-03T04:17:37;-4.20;99.90
56771;DHT22;42641;59.794;17.616;2023-04-03T04:20:06;-4.20;99.90
56771;DHT22;42641;59.794;17.616;2023-04-03T04:22:33;-4.20;99.90
56771;DHT22;42641;59.794;17.616;2023-04-03T04:24:59;-4.20;99.90
56771;DHT22;42641;59.794;17.616;2023-04-03T04:27:26;-4.20;99.90
56771;DHT22;42641;59.794;17.616;2023-04-03T04:29:52;-4.20;99.90
56771;DHT22;42641;59.794;17.616;2023-04-03T04:32:21;-4.30;99.90
56771;DHT22;42641;59.794;17.616;2023-04-03T04:34:48;-4.30;99.90
56771;DHT22;42641;59.794;17.616;2023-04-03T04:37:15;-4.20;99.90
56771;DHT22;42641;59.794;17.616;2023-04-03T04:39:41;-4.20;99.90
56771;DHT22;42641;59.794;17.616;2023-04-03T04:42:08;-4.20;99.90
56771;DHT22;42641;59.794;17.616;2023-04-03T04:44:40;-4.20;99.90
56771;DHT22;42641;59.794;17.616;2023-04-03T04:47:07;-4.20;99.90
56771;DHT22;42641;59.794;17.616;2023-04-03T04:49:33;-4.10;99.90
56771;DHT22;42641;59.794;17.616;2023-04-03T04:52:00;-4.10;99.90
56771;DHT22;42641;59.794;17.616;2023-04-03T04:54:30;-4.10;99.90
56771;DHT22;42641;59.794;17.616;2023-04-03T04:56:57;-4.10;99.90
56771;DHT22;42641;59.794;17.616;2023-04-03T04:59:25;-4.10;99.90
56771;DHT22;42641;59.794;17.616;2023-04-03T05:01:53;-4.00;99.90
56771;DHT22;42641;59.794;17.616;2023-04-03T05:04:20;-4.00;99.90
56771;DHT22;42641;59.794;17.616;2023-04-03T05:06:51;-4.00;99.90
56771;DHT22;42641;59.794;17.616;2023-04-03T05:09:22;-4.00;99.90
56771;DHT22;42641;59.794;17.616;2023-04-03T05:11:50;-4.00;99.90
56771;DHT22;42641;59.794;17.616;2023-04-03T05:14:19;-3.90;99.90
56771;DHT22;42641;59.794;17.616;2023-04-03T05:16:46;-3.90;99.90
56771;DHT22;42641;59.794;17.616;2023-04-03T05:19:13;-3.90;99.90
56771;DHT22;42641;59.794;17.616;2023-04-03T05:21:41;-3.80;99.90
56771;DHT22;42641;59.794;17.616;2023-04-03T05:24:12;-3.80;99.90
56771;DHT22;42641;59.794;17.616;2023-04-03T05:26:42;-3.70;99.90
56771;DHT22;42641;59.794;17.616;2023-04-03T05:29:09;-3.60;99.90
56771;DHT22;42641;59.794;17.616;2023-04-03T05:31:36;-3.60;99.90
56771;DHT22;42641;59.794;17.616;2023-04-03T05:34:03;-3.50;99.90
56771;DHT22;42641;59.794;17.616;2023-04-03T05:36:35;-3.40;99.90
56771;DHT22;42641;59.794;17.616;2023-04-03T05:39:05;-3.40;99.90
56771;DHT22;42641;59.794;17.616;2023-04-03T05:41:33;-3.30;99.90
56771;DHT22;42641;59.794;17.616;2023-04-03T05:43:59;-3.20;99.90
56771;DHT22;42641;59.794;17.616;2023-04-03T05:46:26;-3.20;99.90
56771;DHT22;42641;59.794;17.616;2023-04-03T05:48:56;-3.10;99.90
56771;DHT22;42641;59.794;17.616;2023-04-03T05:51:30;-3.00;99.90
56771;DHT22;42641;59.794;17.616;2023-04-03T05:54:26;-3.00;99.90
56771;DHT22;42641;59.794;17.616;2023-04-03T05:56:58;-2.90;99.90
56771;DHT22;42641;59.794;17.616;2023-04-03T05:59:26;-2.80;99.90
56771;DHT22;42641;59.794;17.616;2023-04-03T06:01:54;-2.80;99.90
56771;DHT22;42641;59.794;17.616;2023-04-03T06:04:21;-2.70;99.90
56771;DHT22;42641;59.794;17.616;2023-04-03T06:06:54;-2.70;99.90
56771;DHT22;42641;59.794;17.616;2023-04-03T06:09:24;-2.60;99.90
56771;DHT22;42641;59.794;17.616;2023-04-03T06:11:52;-2.50;99.90
56771;DHT22;42641;59.794;17.616;2023-04-03T06:14:19;-2.40;99.90
56771;DHT22;42641;59.794;17.616;2023-04-03T06:16:46;-2.30;99.90
56771;DHT22;42641;59.794;17.616;2023-04-03T06:19:12;-2.30;99.90
56771;DHT22;42641;59.794;17.616;2023-04-03T06:21:43;-2.10;99.90
56771;DHT22;42641;59.794;17.616;2023-04-03T06:24:12;-2.10;99.90
56771;DHT22;42641;59.794;17.616;2023-04-03T06:26:39;-1.90;99.90
56771;DHT22;42641;59.794;17.616;2023-04-03T06:29:06;-1.80;99.90
56771;DHT22;42641;59.794;17.616;2023-04-03T06:31:33;-1.80;99.90
56771;DHT22;42641;59.794;17.616;2023-04-03T06:34:00;-1.70;99.90
56771;DHT22;42641;59.794;17.616;2023-04-03T06:36:26;-1.60;99.90
56771;DHT22;42641;59.794;17.616;2023-04-03T06:38:53;-1.50;99.90
56771;DHT22;42641;59.794;17.616;2023-04-03T06:41:19;-1.40;99.90
56771;DHT22;42641;59.794;17.616;2023-04-03T06:43:47;-1.40;99.90
56771;DHT22;42641;59.794;17.616;2023-04-03T06:46:15;-1.30;99.90
56771;DHT22;42641;59.794;17.616;2023-04-03T06:48:41;-1.20;99.90
56771;DHT22;42641;59.794;17.616;2023-04-03T06:51:18;-1.10;99.90
56771;DHT22;42641;59.794;17.616;2023-04-03T06:53:47;-1.00;99.90
56771;DHT22;42641;59.794;17.616;2023-04-03T06:56:14;-0.90;99.90
56771;DHT22;42641;59.794;17.616;2023-04-03T06:58:41;-0.80;99.90
56771;DHT22;42641;59.794;17.616;2023-04-03T07:01:09;-0.80;99.90
56771;DHT22;42641;59.794;17.616;2023-04-03T07:03:36;-0.70;99.90
56771;DHT22;42641;59.794;17.616;2023-04-03T07:06:04;-0.60;99.90
56771;DHT22;42641;59.794;17.616;2023-04-03T07:08:31;-0.50;99.90
56771;DHT22;42641;59.794;17.616;2023-04-03T07:10:58;-0.40;99.90
56771;DHT22;42641;59.794;17.616;2023-04-03T07:13:24;-0.40;99.90
56771;DHT22;42641;59.794;17.616;2023-04-03T07:15:51;-0.30;99.90
56771;DHT22;42641;59.794;17.616;2023-04-03T07:18:19;-0.20;99.90
56771;DHT22;42641;59.794;17.616;2023-04-03T07:20:46;-0.10;99.90
56771;DHT22;42641;59.794;17.616;2023-04-03T07:23:12;0.00;99.90
56771;DHT22;42641;59.794;17.616;2023-04-03T07:25:43;0.10;99.90
56771;DHT22;42641;59.794;17.616;2023-04-03T07:28:10;0.20;99.90
56771;DHT22;42641;59.794;17.616;2023-04-03T07:30:45;0.40;99.90
56771;DHT22;42641;59.794;17.616;2023-04-03T07:33:13;0.50;99.90
56771;DHT22;42641;59.794;17.616;2023-04-03T07:35:40;0.60;99.90
56771;DHT22;42641;59.794;17.616;2023-04-03T07:38:07;0.60;99.90
56771;DHT22;42641;59.794;17.616;2023-04-03T07:40:34;0.70;99.90
56771;DHT22;42641;59.794;17.616;2023-04-03T07:43:01;0.80;99.90
56771;DHT22;42641;59.794;17.616;2023-04-03T07:45:29;0.90;99.90
56771;DHT22;42641;59.794;17.616;2023-04-03T07:47:55;0.90;99.90
56771;DHT22;42641;59.794;17.616;2023-04-03T07:50:22;0.90;99.90
56771;DHT22;42641;59.794;17.616;2023-04-03T07:52:49;1.00;99.90
56771;DHT22;42641;59.794;17.616;2023-04-03T07:55:17;1.10;99.90
56771;DHT22;42641;59.794;17.616;2023-04-03T07:57:43;1.10;99.90
56771;DHT22;42641;59.794;17.616;2023-04-03T08:00:10;1.20;99.90
56771;DHT22;42641;59.794;17.616;2023-04-03T08:02:41;1.30;99.90
56771;DHT22;42641;59.794;17.616;2023-04-03T08:05:07;1.40;99.90
56771;DHT22;42641;59.794;17.616;2023-04-03T08:07:34;1.60;99.90
56771;DHT22;42641;59.794;17.616;2023-04-03T08:10:02;1.70;99.90
56771;DHT22;42641;59.794;17.616;2023-04-03T08:12:29;1.70;99.90
56771;DHT22;42641;59.794;17.616;2023-04-03T08:15:00;1.70;99.90
56771;DHT22;42641;59.794;17.616;2023-04-03T08:17:27;1.70;99.90
56771;DHT22;42641;59.794;17.616;2023-04-03T08:19:53;1.80;99.90
56771;DHT22;42641;59.794;17.616;2023-04-03T08:22:20;2.00;99.90
56771;DHT22;42641;59.794;17.616;2023-04-03T08:24:47;2.10;99.90
56771;DHT22;42641;59.794;17.616;2023-04-03T08:27:13;2.10;99.90
56771;DHT22;42641;59.794;17.616;2023-04-03T08:29:40;2.20;99.90
56771;DHT22;42641;59.794;17.616;2023-04-03T08:32:06;2.20;99.90
56771;DHT22;42641;59.794;17.616;2023-04-03T08:34:33;2.30;99.90
56771;DHT22;42641;59.794;17.616;2023-04-03T08:37:01;2.20;99.90
56771;DHT22;42641;59.794;17.616;2023-04-03T08:39:28;2.20;99.90
56771;DHT22;42641;59.794;17.616;2023-04-03T08:41:58;2.30;99.90
56771;DHT22;42641;59.794;17.616;2023-04-03T08:47:18;2.50;99.90
56771;DHT22;42641;59.794;17.616;2023-04-03T08:49:55;2.60;99.90
56771;DHT22;42641;59.794;17.616;2023-04-03T08:52:42;2.70;99.90
56771;DHT22;42641;59.794;17.616;2023-04-03T08:55:25;2.60;99.90
56771;DHT22;42641;59.794;17.616;2023-04-03T09:00:34;2.60;99.90
56771;DHT22;42641;59.794;17.616;2023-04-03T09:03:03;2.60;99.90
56771;DHT22;42641;59.794;17.616;2023-04-03T09:11:00;2.90;99.90
56771;DHT22;42641;59.794;17.616;2023-04-03T09:21:40;3.20;99.90
56771;DHT22;42641;59.794;17.616;2023-04-03T09:24:12;3.40;99.90
56771;DHT22;42641;59.794;17.616;2023-04-03T09:26:51;3.50;99.90
56771;DHT22;42641;59.794;17.616;2023-04-03T09:29:23;3.50;99.90
56771;DHT22;42641;59.794;17.616;2023-04-03T09:31:56;3.40;99.90
56771;DHT22;42641;59.794;17.616;2023-04-03T09:36:53;3.50;99.90
56771;DHT22;42641;59.794;17.616;2023-04-03T09:39:23;3.50;99.90
56771;DHT22;42641;59.794;17.616;2023-04-03T09:42:20;3.50;99.90
56771;DHT22;42641;59.794;17.616;2023-04-03T09:44:57;3.60;99.90
56771;DHT22;42641;59.794;17.616;2023-04-03T09:47:32;3.70;99.90
56771;DHT22;42641;59.794;17.616;2023-04-03T09:50:21;3.90;99.90
56771;DHT22;42641;59.794;17.616;2023-04-03T09:52:50;3.80;99.90
56771;DHT22;42641;59.794;17.616;2023-04-03T09:55:23;3.70;99.90
56771;DHT22;42641;59.794;17.616;2023-04-03T09:57:54;3.80;99.90
56771;DHT22;42641;59.794;17.616;2023-04-03T10:00:26;3.90;99.90
56771;DHT22;42641;59.794;17.616;2023-04-03T10:02:57;3.80;99.90
56771;DHT22;42641;59.794;17.616;2023-04-03T10:05:38;3.90;99.90
56771;DHT22;42641;59.794;17.616;2023-04-03T10:08:10;3.90;99.90
56771;DHT22;42641;59.794;17.616;2023-04-03T10:10:38;4.10;99.90
56771;DHT22;42641;59.794;17.616;2023-04-03T10:15:44;4.20;99.90
56771;DHT22;42641;59.794;17.616;2023-04-03T10:20:57;4.30;99.90
56771;DHT22;42641;59.794;17.616;2023-04-03T10:23:45;4.50;99.90
56771;DHT22;42641;59.794;17.616;2023-04-03T10:29:02;4.60;99.90
56771;DHT22;42641;59.794;17.616;2023-04-03T10:31:50;4.60;99.90
56771;DHT22;42641;59.794;17.616;2023-04-03T10:34:28;4.50;99.90
56771;DHT22;42641;59.794;17.616;2023-04-03T10:53:34;5.40;99.90
56771;DHT22;42641;59.794;17.616;2023-04-03T10:56:31;5.40;99.90
56771;DHT22;42641;59.794;17.616;2023-04-03T11:01:36;5.50;99.90
56771;DHT22;42641;59.794;17.616;2023-04-03T11:04:05;5.60;99.90
56771;DHT22;42641;59.794;17.616;2023-04-03T11:06:41;5.60;99.90
56771;DHT22;42641;59.794;17.616;2023-04-03T11:09:32;5.60;99.90
56771;DHT22;42641;59.794;17.616;2023-04-03T11:12:25;5.80;99.90
56771;DHT22;42641;59.794;17.616;2023-04-03T11:14:55;6.00;99.90
56771;DHT22;42641;59.794;17.616;2023-04-03T11:17:26;6.40;99.90
56771;DHT22;42641;59.794;17.616;2023-04-03T11:20:18;7.10;99.80
56771;DHT22;42641;59.794;17.616;2023-04-03T11:23:24;8.10;98.60
56771;DHT22;42641;59.794;17.616;2023-04-03T11:25:59;8.50;95.50
56771;DHT22;42641;59.794;17.616;2023-04-03T11:28:30;8.90;94.50
56771;DHT22;42641;59.794;17.616;2023-04-03T11:31:22;9.10;93.10
56771;DHT22;42641;59.794;17.616;2023-04-03T11:34:03;9.60;91.80
56771;DHT22;42641;59.794;17.616;2023-04-03T11:36:46;9.80;90.80
56771;DHT22;42641;59.794;17.616;2023-04-03T11:39:28;9.80;88.70
56771;DHT22;42641;59.794;17.616;2023-04-03T11:41:55;9.70;85.40
56771;DHT22;42641;59.794;17.616;2023-04-03T11:44:39;9.50;84.80
56771;DHT22;42641;59.794;17.616;2023-04-03T11:47:07;9.90;82.10
56771;DHT22;42641;59.794;17.616;2023-04-03T11:49:58;9.90;81.30
56771;DHT22;42641;59.794;17.616;2023-04-03T12:05:50;10.20;71.80
56771;DHT22;42641;59.794;17.616;2023-04-03T12:08:42;10.10;71.60
56771;DHT22;42641;59.794;17.616;2023-04-03T12:13:39;10.60;70.50
56771;DHT22;42641;59.794;17.616;2023-04-03T12:16:29;10.80;71.10
56771;DHT22;42641;59.794;17.616;2023-04-03T12:24:28;11.40;68.60
56771;DHT22;42641;59.794;17.616;2023-04-03T12:29:34;11.80;68.10
56771;DHT22;42641;59.794;17.616;2023-04-03T12:35:23;11.40;67.40
56771;DHT22;42641;59.794;17.616;2023-04-03T12:37:56;11.30;67.00
56771;DHT22;42641;59.794;17.616;2023-04-03T12:48:58;12.30;64.00
56771;DHT22;42641;59.794;17.616;2023-04-03T12:51:37;12.30;63.10
56771;DHT22;42641;59.794;17.616;2023-04-03T12:56:39;12.60;64.80
56771;DHT22;42641;59.794;17.616;2023-04-03T12:59:21;12.40;64.50
56771;DHT22;42641;59.794;17.616;2023-04-03T13:01:58;12.30;61.10
56771;DHT22;42641;59.794;17.616;2023-04-03T13:04:27;12.10;60.00
56771;DHT22;42641;59.794;17.616;2023-04-03T13:06:54;12.10;61.30
56771;DHT22;42641;59.794;17.616;2023-04-03T13:12:15;12.60;58.40
56771;DHT22;42641;59.794;17.616;2023-04-03T13:14:55;12.30;57.20
56771;DHT22;42641;59.794;17.616;2023-04-03T13:17:22;12.40;57.40
56771;DHT22;42641;59.794;17.616;2023-04-03T13:19:49;12.80;58.50
56771;DHT22;42641;59.794;17.616;2023-04-03T13:24:59;13.10;59.20
56771;DHT22;42641;59.794;17.616;2023-04-03T13:27:27;12.60;56.20
56771;DHT22;42641;59.794;17.616;2023-04-03T13:29:58;12.40;58.20
56771;DHT22;42641;59.794;17.616;2023-04-03T13:32:28;12.40;57.90
56771;DHT22;42641;59.794;17.616;2023-04-03T13:34:56;12.50;59.10
56771;DHT22;42641;59.794;17.616;2023-04-03T13:37:28;12.70;58.20
56771;DHT22;42641;59.794;17.616;2023-04-03T13:42:33;12.90;55.90
56771;DHT22;42641;59.794;17.616;2023-04-03T13:45:31;12.70;56.10
56771;DHT22;42641;59.794;17.616;2023-04-03T13:48:35;12.60;56.10
56771;DHT22;42641;59.794;17.616;2023-04-03T13:56:36;12.70;57.20
56771;DHT22;42641;59.794;17.616;2023-04-03T14:01:43;12.60;57.40
56771;DHT22;42641;59.794;17.616;2023-04-03T14:04:14;12.50;56.80
56771;DHT22;42641;59.794;17.616;2023-04-03T14:06:41;12.80;56.20
56771;DHT22;42641;59.794;17.616;2023-04-03T14:09:08;12.80;56.50
56771;DHT22;42641;59.794;17.616;2023-04-03T14:11:35;12.50;55.90
56771;DHT22;42641;59.794;17.616;2023-04-03T14:14:09;12.30;56.20
56771;DHT22;42641;59.794;17.616;2023-04-03T14:16:50;12.20;57.40
56771;DHT22;42641;59.794;17.616;2023-04-03T14:19:24;12.20;56.80
56771;DHT22;42641;59.794;17.616;2023-04-03T14:21:52;12.50;57.60
56771;DHT22;42641;59.794;17.616;2023-04-03T14:24:20;12.90;57.90
56771;DHT22;42641;59.794;17.616;2023-04-03T14:26:49;12.80;55.70
56771;DHT22;42641;59.794;17.616;2023-04-03T14:29:16;13.00;54.50
56771;DHT22;42641;59.794;17.616;2023-04-03T14:31:45;13.50;55.10
56771;DHT22;42641;59.794;17.616;2023-04-03T14:34:14;13.10;53.40
56771;DHT22;42641;59.794;17.616;2023-04-03T14:36:42;12.40;54.30
56771;DHT22;42641;59.794;17.616;2023-04-03T14:39:16;11.80;54.70
56771;DHT22;42641;59.794;17.616;2023-04-03T14:41:44;11.50;57.10
56771;DHT22;42641;59.794;17.616;2023-04-03T14:44:11;11.30;57.40
56771;DHT22;42641;59.794;17.616;2023-04-03T14:46:42;11.00;56.60
56771;DHT22;42641;59.794;17.616;2023-04-03T14:49:19;10.90;57.40
56771;DHT22;42641;59.794;17.616;2023-04-03T14:51:47;10.80;57.20
56771;DHT22;42641;59.794;17.616;2023-04-03T14:54:17;10.70;59.10
56771;DHT22;42641;59.794;17.616;2023-04-03T14:56:44;10.70;57.40
56771;DHT22;42641;59.794;17.616;2023-04-03T14:59:14;10.50;57.40
56771;DHT22;42641;59.794;17.616;2023-04-03T15:01:41;10.20;57.40
56771;DHT22;42641;59.794;17.616;2023-04-03T15:04:13;9.90;58.30
56771;DHT22;42641;59.794;17.616;2023-04-03T15:06:41;10.00;59.90
56771;DHT22;42641;59.794;17.616;2023-04-03T15:09:25;9.80;59.10
56771;DHT22;42641;59.794;17.616;2023-04-03T15:11:53;9.70;59.10
56771;DHT22;42641;59.794;17.616;2023-04-03T15:14:21;9.60;58.20
56771;DHT22;42641;59.794;17.616;2023-04-03T15:16:48;9.50;59.10
56771;DHT22;42641;59.794;17.616;2023-04-03T15:19:14;9.40;61.10
56771;DHT22;42641;59.794;17.616;2023-04-03T15:24:37;9.10;59.80
56771;DHT22;42641;59.794;17.616;2023-04-03T15:27:04;9.10;62.00
56771;DHT22;42641;59.794;17.616;2023-04-03T15:29:30;8.90;60.20
56771;DHT22;42641;59.794;17.616;2023-04-03T15:31:57;8.60;61.20
56771;DHT22;42641;59.794;17.616;2023-04-03T15:34:23;8.20;61.40
56771;DHT22;42641;59.794;17.616;2023-04-03T15:36:50;8.00;61.70
56771;DHT22;42641;59.794;17.616;2023-04-03T15:39:18;7.90;63.00
56771;DHT22;42641;59.794;17.616;2023-04-03T15:41:45;7.90;63.20
56771;DHT22;42641;59.794;17.616;2023-04-03T15:44:11;7.60;61.80
56771;DHT22;42641;59.794;17.616;2023-04-03T15:46:39;7.40;64.00
56771;DHT22;42641;59.794;17.616;2023-04-03T15:49:06;7.20;63.60
56771;DHT22;42641;59.794;17.616;2023-04-03T15:51:32;7.20;65.40
56771;DHT22;42641;59.794;17.616;2023-04-03T15:53:58;7.10;65.70
56771;DHT22;42641;59.794;17.616;2023-04-03T15:56:25;6.90;64.00
56771;DHT22;42641;59.794;17.616;2023-04-03T15:58:51;6.80;65.60
56771;DHT22;42641;59.794;17.616;2023-04-03T16:01:18;6.90;65.80
56771;DHT22;42641;59.794;17.616;2023-04-03T16:03:44;6.90;66.30
56771;DHT22;42641;59.794;17.616;2023-04-03T16:06:13;6.70;63.20
56771;DHT22;42641;59.794;17.616;2023-04-03T16:08:39;6.60;63.70
56771;DHT22;42641;59.794;17.616;2023-04-03T16:11:06;6.50;62.60
56771;DHT22;42641;59.794;17.616;2023-04-03T16:13:32;6.50;62.30
56771;DHT22;42641;59.794;17.616;2023-04-03T16:16:00;6.60;64.60
56771;DHT22;42641;59.794;17.616;2023-04-03T16:18:28;6.60;64.40
56771;DHT22;42641;59.794;17.616;2023-04-03T16:20:55;6.50;62.50
56771;DHT22;42641;59.794;17.616;2023-04-03T16:23:22;6.50;63.90
56771;DHT22;42641;59.794;17.616;2023-04-03T16:25:48;6.40;62.50
56771;DHT22;42641;59.794;17.616;2023-04-03T16:28:17;6.30;62.70
56771;DHT22;42641;59.794;17.616;2023-04-03T16:30:47;6.20;64.30
56771;DHT22;42641;59.794;17.616;2023-04-03T16:33:15;6.10;64.50
56771;DHT22;42641;59.794;17.616;2023-04-03T16:35:41;6.10;66.50
56771;DHT22;42641;59.794;17.616;2023-04-03T16:38:09;6.00;65.90
56771;DHT22;42641;59.794;17.616;2023-04-03T16:40:35;5.90;65.30
56771;DHT22;42641;59.794;17.616;2023-04-03T16:43:02;5.90;64.50
56771;DHT22;42641;59.794;17.616;2023-04-03T16:45:28;5.90;65.50
56771;DHT22;42641;59.794;17.616;2023-04-03T16:47:55;5.80;65.60
56771;DHT22;42641;59.794;17.616;2023-04-03T16:50:21;5.70;64.00
56771;DHT22;42641;59.794;17.616;2023-04-03T16:52:48;5.70;65.80
56771;DHT22;42641;59.794;17.616;2023-04-03T16:55:14;5.60;67.00
56771;DHT22;42641;59.794;17.616;2023-04-03T16:57:41;5.50;64.70
56771;DHT22;42641;59.794;17.616;2023-04-03T17:00:08;5.50;65.10
56771;DHT22;42641;59.794;17.616;2023-04-03T17:02:34;5.40;65.10
56771;DHT22;42641;59.794;17.616;2023-04-03T17:05:01;5.30;66.00
56771;DHT22;42641;59.794;17.616;2023-04-03T17:07:27;5.20;68.40
56771;DHT22;42641;59.794;17.616;2023-04-03T17:09:54;5.20;69.80
56771;DHT22;42641;59.794;17.616;2023-04-03T17:12:21;5.10;70.60
56771;DHT22;42641;59.794;17.616;2023-04-03T17:14:47;5.00;71.20
56771;DHT22;42641;59.794;17.616;2023-04-03T17:17:14;4.90;72.00
56771;DHT22;42641;59.794;17.616;2023-04-03T17:19:42;4.90;73.10
56771;DHT22;42641;59.794;17.616;2023-04-03T17:22:09;4.80;73.70
56771;DHT22;42641;59.794;17.616;2023-04-03T17:24:36;4.60;74.00
56771;DHT22;42641;59.794;17.616;2023-04-03T17:27:03;4.60;74.70
56771;DHT22;42641;59.794;17.616;2023-04-03T17:29:29;4.40;74.80
56771;DHT22;42641;59.794;17.616;2023-04-03T17:31:56;4.40;75.50